Time;durP1;ratioP1;P1;durP2;ratioP2;P2;SDS_P1;SDS_P2;PMS_P1;PMS_P2;Temp;Humidity;BMP_temperature;BMP_pressure;BME280_temperature;BME280_humidity;BME280_pressure;Samples;Min_cycle;Max_cycle;Signal;HPM_P1;HPM_P2
2023/03/24 00:01:17;;;;;;;4.53;2.70;;;;;;;15.30;57.15;94980.59;6128995;23;20211;-86
2023/03/24 00:03:47;;;;;;;6.00;2.90;;;;;;;15.33;57.03;94980.97;6129788;23;20180;-86
2023/03/24 00:06:14;;;;;;;4.20;2.40;;;;;;;15.30;56.85;94973.63;6128510;23;20635;-87
2023/03/24 00:08:42;;;;;;;2.78;2.58;;;;;;;15.25;57.29;94973.47;6124791;23;20266;-88
2023/03/24 00:11:11;;;;;;;3.55;2.70;;;;;;;15.30;57.00;94965.03;6125670;23;20603;-86
2023/03/24 00:13:39;;;;;;;3.65;2.60;;;;;;;15.26;56.89;94951.72;6128714;23;20723;-87
2023/03/24 00:16:08;;;;;;;3.65;2.30;;;;;;;15.17;56.89;94946.06;6127848;23;20186;-87
2023/03/24 00:18:35;;;;;;;2.95;2.13;;;;;;;15.09;56.54;94946.38;6127412;23;20199;-88
2023/03/24 00:21:04;;;;;;;2.40;2.20;;;;;;;15.12;56.23;94939.94;6127168;23;20195;-87
2023/03/24 00:23:32;;;;;;;2.72;2.30;;;;;;;15.13;56.36;94937.13;6128936;23;20176;-87
2023/03/24 00:26:01;;;;;;;2.55;2.30;;;;;;;15.13;56.04;94934.56;6128322;23;20184;-87
2023/03/24 00:28:28;;;;;;;4.07;2.40;;;;;;;15.14;55.97;94927.56;6126097;23;20251;-87
2023/03/24 00:30:55;;;;;;;3.15;2.42;;;;;;;15.17;55.81;94917.53;6125563;23;20230;-87
2023/03/24 00:33:22;;;;;;;2.55;2.30;;;;;;;15.03;56.52;94913.53;6128105;23;20180;-87
2023/03/24 00:35:49;;;;;;;3.10;2.35;;;;;;;14.97;56.64;94901.47;6129222;23;20179;-87
2023/03/24 00:38:18;;;;;;;3.13;2.40;;;;;;;15.01;56.42;94907.78;6129079;23;20206;-87
2023/03/24 00:40:45;;;;;;;4.20;2.50;;;;;;;15.03;56.35;94912.75;6129798;23;20231;-87
2023/03/24 00:43:12;;;;;;;3.38;2.20;;;;;;;15.02;56.23;94911.16;6128813;23;20230;-87
2023/03/24 00:45:44;;;;;;;3.78;2.40;;;;;;;15.01;56.29;94912.19;6129563;23;20231;-87
2023/03/24 00:48:11;;;;;;;6.20;2.30;;;;;;;15.00;56.29;94908.81;6129647;23;20196;-87
2023/03/24 00:50:37;;;;;;;2.90;2.42;;;;;;;15.07;56.06;94906.09;6130865;23;20237;-87
2023/03/24 00:53:03;;;;;;;4.25;2.35;;;;;;;15.03;56.07;94910.16;6128421;23;20190;-87
2023/03/24 00:55:32;;;;;;;2.40;2.20;;;;;;;15.01;56.21;94904.41;6130370;23;20235;-87
2023/03/24 00:57:59;;;;;;;2.40;2.20;;;;;;;15.09;55.97;94912.66;6130000;23;20199;-87
2023/03/24 01:00:26;;;;;;;2.28;2.08;;;;;;;15.16;55.47;94909.97;6129601;23;20479;-87
2023/03/24 01:02:55;;;;;;;2.40;2.20;;;;;;;15.12;55.43;94917.41;6127670;23;20203;-87
2023/03/24 01:05:23;;;;;;;2.75;2.55;;;;;;;15.15;55.40;94911.00;6130125;23;20176;-86
2023/03/24 01:07:51;;;;;;;2.38;2.17;;;;;;;15.24;55.41;94927.00;6129167;23;20195;-87
2023/03/24 01:10:20;;;;;;;2.47;2.28;;;;;;;15.28;54.86;94926.34;6130132;23;20179;-86
2023/03/24 01:12:48;;;;;;;3.63;2.65;;;;;;;15.30;54.40;94921.75;6129672;23;20274;-87
2023/03/24 01:15:17;;;;;;;3.25;2.60;;;;;;;15.38;54.61;94929.22;6129660;23;20179;-87
2023/03/24 01:17:45;;;;;;;2.70;2.40;;;;;;;15.42;54.41;94924.34;6130718;23;20660;-87
2023/03/24 01:20:12;;;;;;;2.50;2.30;;;;;;;15.47;54.41;94916.69;6129010;23;20184;-87
2023/03/24 01:22:43;;;;;;;4.90;2.50;;;;;;;15.51;54.40;94910.06;6125884;23;20199;-87
2023/03/24 01:25:14;;;;;;;2.97;2.67;;;;;;;15.49;53.77;94907.69;6129170;23;20167;-85
2023/03/24 01:27:40;;;;;;;2.80;2.53;;;;;;;15.49;53.71;94904.31;6127565;23;20238;-86
2023/03/24 01:30:11;;;;;;;3.90;2.58;;;;;;;15.54;53.85;94912.22;6128968;23;20185;-87
2023/03/24 01:32:38;;;;;;;2.85;2.58;;;;;;;15.52;53.86;94906.44;6128169;23;20210;-87
2023/03/24 01:35:05;;;;;;;3.55;2.50;;;;;;;15.51;53.82;94891.91;6129783;23;20873;-86
2023/03/24 01:37:31;;;;;;;3.72;2.53;;;;;;;15.56;53.77;94896.44;6127725;23;20675;-87
2023/03/24 01:39:58;;;;;;;4.18;2.80;;;;;;;15.42;53.95;94888.03;6127805;23;20230;-87
2023/03/24 01:42:26;;;;;;;2.70;2.50;;;;;;;15.40;54.38;94883.06;6126905;23;20202;-86
2023/03/24 01:44:57;;;;;;;2.88;2.45;;;;;;;15.39;54.43;94880.72;6128758;23;20305;-87
2023/03/24 01:47:25;;;;;;;2.80;2.50;;;;;;;15.32;54.34;94872.25;6128109;23;20171;-87
2023/03/24 01:49:56;;;;;;;3.03;2.30;;;;;;;15.24;54.77;94867.38;6127551;23;20186;-86
2023/03/24 01:52:26;;;;;;;2.50;2.30;;;;;;;15.19;54.80;94868.84;6127355;23;20163;-88
2023/03/24 01:54:57;;;;;;;2.85;2.50;;;;;;;15.21;54.91;94864.19;6127980;23;20163;-86
2023/03/24 01:57:26;;;;;;;2.60;2.35;;;;;;;15.26;54.52;94868.72;6130229;23;20190;-87
2023/03/24 01:59:57;;;;;;;3.25;2.63;;;;;;;15.36;54.35;94881.97;6129901;23;20179;-87
2023/03/24 02:02:26;;;;;;;4.15;2.60;;;;;;;15.36;53.90;94876.75;6129306;23;20219;-87
2023/03/24 02:04:57;;;;;;;2.72;2.53;;;;;;;15.43;53.97;94885.22;6129068;23;20226;-87
2023/03/24 02:07:32;;;;;;;3.50;2.50;;;;;;;15.43;53.84;94877.44;6128048;23;20168;-88
2023/03/24 02:09:59;;;;;;;3.58;2.83;;;;;;;15.42;53.97;94881.03;6127001;23;20179;-86
2023/03/24 02:12:25;;;;;;;4.75;2.70;;;;;;;15.40;54.40;94875.28;6128852;23;20182;-86
2023/03/24 02:14:53;;;;;;;3.60;2.95;;;;;;;15.40;54.23;94880.47;6128340;23;20210;-87
2023/03/24 02:17:34;;;;;;;3.40;3.10;;;;;;;15.39;54.23;94876.31;6130072;23;20211;-86
2023/03/24 02:20:30;;;;;;;3.00;2.67;;;;;;;15.41;54.15;94878.66;6129989;23;20168;-87
2023/03/24 02:23:26;;;;;;;4.15;2.70;;;;;;;15.39;54.15;94880.72;6128691;23;20180;-87
2023/03/24 02:26:26;;;;;;;3.08;2.72;;;;;;;15.42;54.31;94875.84;6126840;23;20799;-86
2023/03/24 02:29:05;;;;;;;2.90;2.60;;;;;;;15.41;54.85;94878.66;6103276;23;20221;-86
2023/03/24 02:31:51;;;;;;;3.75;2.72;;;;;;;15.39;54.97;94873.72;6128072;23;20167;-86
2023/03/24 02:34:56;;;;;;;4.35;2.65;;;;;;;15.36;55.36;94875.97;6126356;23;20164;-87
2023/03/24 02:37:41;;;;;;;2.78;2.58;;;;;;;15.35;55.21;94877.00;6132399;23;20255;-87
2023/03/24 02:40:21;;;;;;;2.97;2.65;;;;;;;15.30;55.29;94885.44;6132717;23;20559;-86
2023/03/24 02:43:00;;;;;;;3.35;2.35;;;;;;;15.19;55.55;94873.25;6132184;23;20188;-86
2023/03/24 02:45:35;;;;;;;4.45;2.88;;;;;;;15.17;56.70;94865.69;6131967;23;20315;-86
2023/03/24 02:48:20;;;;;;;3.13;2.83;;;;;;;14.88;58.29;94856.13;6133541;23;20226;-87
2023/03/24 02:50:51;;;;;;;3.10;2.80;;;;;;;14.80;57.26;94864.22;6130875;23;20164;-86
2023/03/24 02:53:23;;;;;;;4.20;2.95;;;;;;;14.89;57.10;94878.44;6132705;23;20380;-87
2023/03/24 02:55:55;;;;;;;3.30;3.00;;;;;;;14.92;57.17;94859.06;6135135;23;20172;-86
2023/03/24 02:58:27;;;;;;;5.10;3.53;;;;;;;15.02;56.96;94857.50;6135000;23;20199;-86
2023/03/24 03:00:58;;;;;;;3.03;2.72;;;;;;;15.04;56.99;94878.81;6135603;23;20231;-86
2023/03/24 03:03:33;;;;;;;3.70;2.80;;;;;;;15.04;56.78;94859.88;6133863;23;20195;-88
2023/03/24 03:06:05;;;;;;;3.28;2.97;;;;;;;15.11;57.20;94858.78;6136007;23;20164;-86
2023/03/24 03:08:34;;;;;;;3.08;2.78;;;;;;;15.16;56.77;94858.13;6133227;23;20196;-86
2023/03/24 03:11:05;;;;;;;4.93;2.88;;;;;;;15.20;57.52;94859.25;6133026;23;20188;-86
2023/03/24 03:13:36;;;;;;;3.38;2.70;;;;;;;15.24;57.90;94859.59;6132232;23;20160;-86
2023/03/24 03:16:07;;;;;;;3.53;3.17;;;;;;;15.25;59.52;94853.38;6132197;23;20471;-85
2023/03/24 03:18:39;;;;;;;3.08;2.55;;;;;;;15.20;59.55;94854.84;6131572;23;20200;-85
2023/03/24 03:21:11;;;;;;;2.90;2.70;;;;;;;15.18;59.18;94845.72;6131154;23;20167;-86
2023/03/24 03:23:41;;;;;;;2.92;2.60;;;;;;;15.20;58.47;94843.69;6131710;23;20184;-86
2023/03/24 03:26:15;;;;;;;3.20;2.70;;;;;;;15.19;58.89;94837.72;6131871;23;20184;-86
2023/03/24 03:28:49;;;;;;;4.18;2.85;;;;;;;15.16;59.12;94832.97;6132234;23;20195;-87
2023/03/24 03:31:20;;;;;;;3.10;2.80;;;;;;;15.21;58.19;94830.50;6132729;23;20160;-86
2023/03/24 03:33:53;;;;;;;3.15;2.85;;;;;;;15.26;58.57;94819.44;6131998;23;20170;-88
2023/03/24 03:36:25;;;;;;;5.32;2.72;;;;;;;15.24;59.22;94808.50;6132235;23;20387;-85
2023/03/24 03:38:57;;;;;;;4.18;3.15;;;;;;;15.12;59.65;94805.13;6130294;23;20227;-86
2023/03/24 03:41:25;;;;;;;2.80;2.60;;;;;;;14.97;60.21;94794.41;6129931;23;20168;-87
2023/03/24 03:43:52;;;;;;;5.20;3.00;;;;;;;14.91;60.50;94795.28;6131267;23;20207;-85
2023/03/24 03:46:19;;;;;;;2.97;2.78;;;;;;;14.77;61.03;94776.56;6130777;23;20179;-86
2023/03/24 03:48:46;;;;;;;3.10;2.80;;;;;;;14.72;61.09;94776.41;6131283;23;20571;-86
2023/03/24 03:51:14;;;;;;;5.72;3.55;;;;;;;14.57;62.02;94765.69;6130827;23;20180;-86
2023/03/24 03:53:48;;;;;;;3.40;3.05;;;;;;;14.54;61.88;94755.75;6132390;23;20175;-87
2023/03/24 03:56:19;;;;;;;2.90;2.67;;;;;;;14.55;61.29;94757.34;6129615;23;20163;-86
2023/03/24 03:58:48;;;;;;;3.15;2.70;;;;;;;14.58;61.52;94767.25;6131127;23;20199;-86
2023/03/24 04:01:17;;;;;;;3.53;3.22;;;;;;;14.64;60.84;94756.78;6130338;23;20183;-86
2023/03/24 04:04:10;;;;;;;3.20;2.90;;;;;;;14.64;61.26;94756.78;6132154;23;20218;-88
2023/03/24 04:06:43;;;;;;;3.03;2.80;;;;;;;14.73;60.32;94765.03;6125036;23;20207;-85
2023/03/24 04:09:25;;;;;;;3.30;3.00;;;;;;;14.80;60.63;94751.00;6131747;23;20203;-86
2023/03/24 04:12:05;;;;;;;3.28;2.95;;;;;;;14.83;59.90;94750.50;6132254;23;20191;-86
2023/03/24 04:14:47;;;;;;;4.10;3.25;;;;;;;14.87;60.19;94753.47;6130284;23;20170;-86
2023/03/24 04:17:26;;;;;;;5.93;3.00;;;;;;;14.91;60.05;94759.00;6131006;23;20684;-86
2023/03/24 04:20:04;;;;;;;4.22;3.20;;;;;;;14.85;59.88;94751.09;6130846;23;20175;-86
2023/03/24 04:22:40;;;;;;;3.72;3.17;;;;;;;14.91;59.94;94756.41;6129416;23;20198;-86
2023/03/24 04:25:14;;;;;;;3.35;3.05;;;;;;;14.90;59.45;94750.41;6131410;23;20218;-86
2023/03/24 04:27:46;;;;;;;3.10;2.88;;;;;;;14.92;59.78;94752.78;6130709;23;20202;-86
2023/03/24 04:30:22;;;;;;;3.67;3.00;;;;;;;14.92;59.42;94757.97;6131483;23;20164;-86
2023/03/24 04:32:57;;;;;;;3.45;3.15;;;;;;;14.89;59.13;94761.81;6131281;23;20195;-87
2023/03/24 04:35:31;;;;;;;3.33;3.00;;;;;;;14.85;59.09;94758.06;6130941;23;20164;-87
2023/03/24 04:38:02;;;;;;;8.05;3.30;;;;;;;14.91;58.81;94757.19;6130616;23;20198;-86
2023/03/24 04:40:32;;;;;;;3.33;3.03;;;;;;;14.90;58.28;94760.78;6132560;23;20215;-85
2023/03/24 04:43:02;;;;;;;3.75;3.33;;;;;;;14.83;58.93;94753.09;6131373;23;20670;-85
2023/03/24 04:45:32;;;;;;;3.40;3.10;;;;;;;14.84;58.75;94762.47;6131058;23;20159;-86
2023/03/24 04:48:01;;;;;;;3.35;3.05;;;;;;;14.89;58.49;94761.00;6131249;23;20511;-87
2023/03/24 04:50:30;;;;;;;5.10;3.35;;;;;;;14.96;58.46;94761.72;6131054;23;20180;-86
2023/03/24 04:52:57;;;;;;;4.75;3.63;;;;;;;14.93;58.39;94769.94;6129871;23;20176;-86
2023/03/24 04:55:44;;;;;;;3.72;3.15;;;;;;;14.92;58.45;94765.75;6130275;23;20183;-86
2023/03/24 04:58:11;;;;;;;3.55;3.25;;;;;;;14.83;58.55;94775.63;6129770;23;20207;-86
2023/03/24 05:00:40;;;;;;;3.60;3.15;;;;;;;14.81;58.66;94762.94;6129416;23;20176;-86
2023/03/24 05:03:07;;;;;;;5.05;3.25;;;;;;;14.82;58.27;94758.50;6129521;23;20227;-86
2023/03/24 05:05:33;;;;;;;3.53;3.22;;;;;;;14.84;57.91;94764.25;6129761;23;20544;-86
2023/03/24 05:07:59;;;;;;;4.60;3.08;;;;;;;14.86;58.10;94770.00;6129118;23;20195;-87
2023/03/24 05:10:26;;;;;;;3.42;3.13;;;;;;;14.91;57.76;94767.56;6129455;23;20180;-85
2023/03/24 05:12:53;;;;;;;3.67;3.38;;;;;;;14.97;57.52;94769.25;6129463;23;20227;-87
2023/03/24 05:15:20;;;;;;;3.08;2.88;;;;;;;15.06;57.38;94777.50;6128629;23;20175;-87
2023/03/24 05:17:48;;;;;;;3.83;3.20;;;;;;;15.13;57.43;94788.56;6127111;23;20203;-88
2023/03/24 05:20:14;;;;;;;3.65;3.10;;;;;;;15.14;57.14;94806.47;6127572;23;20225;-87
2023/03/24 05:22:40;;;;;;;3.72;3.08;;;;;;;15.09;57.99;94811.53;6127060;23;20206;-87
2023/03/24 05:25:08;;;;;;;4.07;3.08;;;;;;;15.07;58.64;94813.56;6126906;23;20183;-86
2023/03/24 05:27:34;;;;;;;3.60;3.30;;;;;;;14.92;59.64;94827.97;6125520;23;20563;-86
2023/03/24 05:30:00;;;;;;;5.03;2.97;;;;;;;14.80;60.09;94833.91;6125405;23;20175;-87
2023/03/24 05:32:27;;;;;;;3.65;3.13;;;;;;;14.78;61.10;94833.34;6126888;23;20182;-87
2023/03/24 05:34:54;;;;;;;4.15;2.90;;;;;;;14.58;62.05;94837.19;6126402;23;20179;-87
2023/03/24 05:37:21;;;;;;;3.30;3.00;;;;;;;14.61;62.23;94827.19;6126145;23;20187;-88
2023/03/24 05:39:47;;;;;;;4.60;2.42;;;;;;;14.66;63.28;94823.94;6127070;23;20180;-86
2023/03/24 05:42:15;;;;;;;5.93;2.90;;;;;;;14.60;63.80;94823.03;6126787;23;20175;-85
2023/03/24 05:44:41;;;;;;;2.72;2.53;;;;;;;14.72;63.66;94812.69;6131683;23;20176;-84
2023/03/24 05:47:08;;;;;;;2.75;2.55;;;;;;;14.81;63.42;94794.03;6133281;23;20179;-87
2023/03/24 05:49:41;;;;;;;2.97;2.75;;;;;;;14.89;63.43;94803.28;6133110;23;20272;-85
2023/03/24 05:52:10;;;;;;;2.90;2.60;;;;;;;14.94;63.91;94810.38;6134265;23;20195;-87
2023/03/24 05:54:38;;;;;;;3.08;2.78;;;;;;;14.92;63.70;94812.41;6131155;23;20186;-86
2023/03/24 05:57:06;;;;;;;2.80;2.60;;;;;;;14.94;64.05;94815.56;6131159;23;20207;-85
2023/03/24 05:59:36;;;;;;;3.15;2.85;;;;;;;14.98;63.71;94820.09;6134273;23;20230;-84
2023/03/24 06:02:03;;;;;;;3.03;2.83;;;;;;;14.95;64.38;94820.53;6132714;23;20164;-84
2023/03/24 06:04:29;;;;;;;3.70;2.70;;;;;;;14.95;63.99;94809.38;6132282;23;20202;-85
2023/03/24 06:06:57;;;;;;;3.55;3.10;;;;;;;14.94;64.10;94800.81;6132858;23;20187;-84
2023/03/24 06:09:27;;;;;;;5.43;3.53;;;;;;;14.91;64.68;94793.47;6133510;23;20204;-85
2023/03/24 06:11:54;;;;;;;4.40;3.20;;;;;;;14.90;63.97;94785.91;6135213;23;20234;-86
2023/03/24 06:14:20;;;;;;;4.97;3.53;;;;;;;14.74;65.12;94771.81;6135495;23;20207;-86
2023/03/24 06:16:48;;;;;;;3.40;2.92;;;;;;;14.72;64.68;94761.66;6134084;23;20179;-84
2023/03/24 06:19:21;;;;;;;3.85;3.13;;;;;;;14.75;65.22;94752.66;6133330;23;20206;-86
2023/03/24 06:21:50;;;;;;;6.05;3.88;;;;;;;14.77;66.16;94761.00;6131964;23;20160;-86
2023/03/24 06:24:20;;;;;;;5.07;3.58;;;;;;;14.83;65.42;94766.06;6131007;23;20192;-86
2023/03/24 06:26:50;;;;;;;4.57;3.30;;;;;;;14.91;63.97;94775.34;6132687;23;20187;-87
2023/03/24 06:29:34;;;;;;;7.82;7.03;;;;;;;14.96;64.22;94780.66;6135977;23;20199;-86
2023/03/24 06:32:07;;;;;;;4.90;4.03;;;;;;;14.98;64.80;94770.06;6134720;23;20168;-87
2023/03/24 06:34:50;;;;;;;3.50;3.20;;;;;;;14.94;64.52;94769.72;6134715;23;20187;-86
2023/03/24 06:37:20;;;;;;;4.57;3.63;;;;;;;14.91;64.85;94761.59;6133513;23;20163;-85
2023/03/24 06:40:12;;;;;;;4.82;3.83;;;;;;;14.93;64.84;94760.34;6133792;23;20192;-85
2023/03/24 06:42:53;;;;;;;;;;;;;;;;;;;;;
2023/03/24 06:45:26;;;;;;;4.68;3.67;;;;;;;15.05;64.05;94757.75;6055056;23;20694;-85
2023/03/24 06:48:04;;;;;;;;;;;;;;;;;;;;;
2023/03/24 06:50:49;;;;;;;7.00;4.40;;;;;;;15.11;63.96;94752.47;6127804;23;20203;-85
2023/03/24 06:53:44;;;;;;;;;;;;;;;;;;;;;
2023/03/24 06:56:17;;;;;;;4.97;4.13;;;;;;;15.10;64.54;94763.84;6131746;23;20774;-87
2023/03/24 06:59:23;;;;;;;;;;;;;;;;;;;;;
2023/03/24 07:05:12;;;;;;;4.90;4.38;;;;;;;15.06;63.90;94762.72;5994243;23;20465;-85
2023/03/24 07:07:40;;;;;;;6.03;4.93;;;;;;;15.01;64.70;94767.03;6131221;23;20179;-86
2023/03/24 07:10:07;;;;;;;5.60;5.10;;;;;;;15.05;64.47;94773.31;6130989;23;20566;-85
2023/03/24 07:12:36;;;;;;;6.35;4.63;;;;;;;15.07;64.33;94777.25;6132533;23;20180;-86
2023/03/24 07:15:04;;;;;;;6.10;5.18;;;;;;;15.07;64.02;94786.84;6131760;23;20207;-87
2023/03/24 07:17:30;;;;;;;5.45;4.70;;;;;;;15.05;63.79;94788.88;6131595;23;20234;-86
2023/03/24 07:20:00;;;;;;;8.27;5.18;;;;;;;15.04;63.83;94792.47;6132057;23;20226;-86
2023/03/24 07:22:28;;;;;;;5.60;4.97;;;;;;;15.04;64.36;94802.84;6132534;23;20180;-87
2023/03/24 07:24:56;;;;;;;5.82;5.22;;;;;;;14.98;64.45;94812.31;6131980;23;20203;-86
2023/03/24 07:27:23;;;;;;;5.93;5.13;;;;;;;15.04;64.43;94821.00;6131215;23;20168;-85
2023/03/24 07:29:50;;;;;;;5.47;4.95;;;;;;;15.08;64.99;94843.66;6130494;23;20623;-85
2023/03/24 07:32:19;;;;;;;5.13;4.60;;;;;;;15.12;64.81;94833.66;6130148;23;20666;-87
2023/03/24 07:34:47;;;;;;;5.70;4.72;;;;;;;15.04;65.58;94842.53;6130887;23;20180;-86
2023/03/24 07:37:15;;;;;;;5.05;4.50;;;;;;;14.99;65.38;94850.19;6130612;23;20182;-86
2023/03/24 07:39:46;;;;;;;6.18;4.78;;;;;;;14.91;66.18;94857.47;6129635;23;20207;-85
2023/03/24 07:42:14;;;;;;;4.20;3.80;;;;;;;14.80;63.06;94857.25;6129767;23;20170;-85
2023/03/24 07:44:40;;;;;;;4.32;3.92;;;;;;;14.94;63.79;94857.03;6127514;23;20200;-85
2023/03/24 07:47:06;;;;;;;5.22;3.67;;;;;;;15.09;64.39;94860.00;6123375;23;20179;-85
2023/03/24 07:49:33;;;;;;;4.15;3.60;;;;;;;15.07;61.81;94880.19;6127556;23;20777;-85
2023/03/24 07:52:05;;;;;;;4.30;3.75;;;;;;;15.15;62.02;94867.69;6129748;23;20584;-86
2023/03/24 07:54:32;;;;;;;4.63;3.85;;;;;;;15.25;62.03;94880.13;6129689;23;20254;-85
2023/03/24 07:57:00;;;;;;;3.88;3.47;;;;;;;15.23;62.07;94876.16;6129421;23;20317;-86
2023/03/24 07:59:26;;;;;;;4.20;3.90;;;;;;;15.31;62.21;94876.63;6128111;23;20205;-85
2023/03/24 08:01:53;;;;;;;4.32;3.92;;;;;;;15.28;62.40;94874.47;6126471;23;20184;-85
2023/03/24 08:04:21;;;;;;;6.18;5.18;;;;;;;15.32;62.25;94875.63;6127910;23;20691;-85
2023/03/24 08:06:48;;;;;;;4.55;4.10;;;;;;;15.35;62.13;94874.41;6125553;23;20182;-85
2023/03/24 08:09:15;;;;;;;3.70;3.30;;;;;;;15.37;62.25;94878.34;6129016;23;20203;-85
2023/03/24 08:11:45;;;;;;;4.57;3.75;;;;;;;15.41;62.25;94882.06;6129778;23;20179;-85
2023/03/24 08:14:13;;;;;;;5.03;3.45;;;;;;;15.47;62.40;94882.97;6128096;23;20191;-84
2023/03/24 08:16:44;;;;;;;3.65;3.35;;;;;;;15.54;62.17;94874.09;6126970;23;20175;-85
2023/03/24 08:19:10;;;;;;;4.35;3.40;;;;;;;15.61;62.15;94876.59;6127127;23;20206;-85
2023/03/24 08:21:37;;;;;;;3.90;3.50;;;;;;;15.67;62.02;94870.50;6127025;23;20727;-86
2023/03/24 08:24:04;;;;;;;3.70;3.40;;;;;;;15.70;62.99;94879.66;6126539;23;20195;-86
2023/03/24 08:26:33;;;;;;;3.70;3.40;;;;;;;15.73;61.88;94887.78;6126920;23;20183;-87
2023/03/24 08:29:06;;;;;;;4.85;3.83;;;;;;;15.69;61.60;94881.44;6126879;23;20753;-87
2023/03/24 08:31:35;;;;;;;3.65;3.35;;;;;;;15.70;62.05;94887.44;6126807;23;20779;-85
2023/03/24 08:34:03;;;;;;;3.50;3.20;;;;;;;15.72;62.07;94882.81;6129044;23;20888;-85
2023/03/24 08:36:30;;;;;;;4.43;3.08;;;;;;;15.66;62.18;94884.50;6131652;23;20179;-88
2023/03/24 08:38:57;;;;;;;4.28;3.00;;;;;;;15.68;62.60;94892.06;6130945;23;20303;-87
2023/03/24 08:41:33;;;;;;;4.15;3.30;;;;;;;15.74;62.64;94893.75;6132261;23;20208;-86
2023/03/24 08:44:00;;;;;;;4.03;3.25;;;;;;;15.74;62.75;94897.16;6132208;23;20754;-85
2023/03/24 08:46:26;;;;;;;2.95;2.70;;;;;;;15.81;62.45;94900.41;6133543;23;20684;-86
2023/03/24 08:48:56;;;;;;;3.03;2.83;;;;;;;15.77;62.92;94907.09;6132939;23;20231;-85
2023/03/24 08:51:23;;;;;;;3.38;3.03;;;;;;;15.81;62.90;94910.00;6132727;23;20781;-85
2023/03/24 08:53:51;;;;;;;3.15;2.88;;;;;;;15.87;62.68;94911.69;6132179;23;20222;-86
2023/03/24 08:56:18;;;;;;;3.30;3.00;;;;;;;15.89;62.77;94925.25;6131375;23;20475;-86
2023/03/24 08:58:47;;;;;;;3.38;3.08;;;;;;;15.91;63.05;94925.03;6130134;23;20204;-87
2023/03/24 09:01:13;;;;;;;6.53;5.65;;;;;;;15.92;62.57;94917.00;6130060;23;20182;-87
2023/03/24 09:03:40;;;;;;;13.02;11.70;;;;;;;15.95;63.17;94913.97;6132550;23;20196;-87
2023/03/24 09:06:08;;;;;;;3.55;3.25;;;;;;;15.89;64.54;94912.25;6135095;23;20543;-85
2023/03/24 09:08:39;;;;;;;4.13;3.33;;;;;;;15.86;65.94;94910.13;6132577;23;20255;-88
2023/03/24 09:11:06;;;;;;;4.03;3.30;;;;;;;15.93;66.32;94917.81;6131233;23;20179;-86
2023/03/24 09:13:33;;;;;;;3.38;3.08;;;;;;;15.84;66.88;94919.94;6132628;23;20190;-86
2023/03/24 09:16:02;;;;;;;3.97;3.58;;;;;;;15.88;67.11;94911.47;6133630;23;20480;-87
2023/03/24 09:18:32;;;;;;;3.50;3.20;;;;;;;15.87;67.44;94915.09;6130868;23;20199;-87
2023/03/24 09:20:58;;;;;;;3.38;3.08;;;;;;;15.70;65.97;94921.97;6130652;23;20223;-85
2023/03/24 09:23:28;;;;;;;3.05;2.70;;;;;;;15.62;66.93;94919.69;6130767;23;20648;-86
2023/03/24 09:25:54;;;;;;;3.30;2.80;;;;;;;15.65;66.16;94921.84;6130378;23;20246;-87
2023/03/24 09:28:21;;;;;;;3.00;2.78;;;;;;;15.64;66.59;94916.88;6129371;23;20667;-85
2023/03/24 09:30:48;;;;;;;2.80;2.55;;;;;;;15.72;66.53;94930.31;6133042;23;20195;-86
2023/03/24 09:33:15;;;;;;;4.07;2.55;;;;;;;15.68;67.29;94944.75;6128153;23;20228;-87
2023/03/24 09:35:45;;;;;;;3.58;3.28;;;;;;;15.47;69.26;94943.44;6126170;23;20176;-87
2023/03/24 09:38:34;;;;;;;;;;;;;;;;;;;;;
2023/03/24 09:41:03;;;;;;;2.67;2.47;;;;;;;15.43;69.89;94959.66;6128684;23;20207;-85
2023/03/24 09:43:37;;;;;;;2.90;2.30;;;;;;;15.38;70.80;94962.94;6129673;23;20239;-85
2023/03/24 09:46:07;;;;;;;2.40;2.20;;;;;;;15.32;70.76;94961.22;6129783;23;20171;-85
2023/03/24 09:48:36;;;;;;;2.47;2.28;;;;;;;15.28;70.68;94969.66;6129004;23;20195;-85
2023/03/24 09:51:07;;;;;;;2.70;2.42;;;;;;;15.20;72.96;94970.78;6128907;23;20498;-85
2023/03/24 09:53:42;;;;;;;2.40;2.20;;;;;;;15.19;72.87;94959.59;6130098;23;20226;-86
2023/03/24 09:56:15;;;;;;;2.85;2.60;;;;;;;15.06;75.35;94972.72;6129044;23;20167;-86
2023/03/24 09:59:21;;;;;;;2.60;2.40;;;;;;;14.97;76.32;94970.66;6128171;23;20207;-85
2023/03/24 10:01:51;;;;;;;3.08;2.50;;;;;;;14.91;76.82;94974.13;6128883;23;20257;-86
2023/03/24 10:04:20;;;;;;;3.50;2.60;;;;;;;14.92;76.59;94973.91;6129480;23;20191;-85
2023/03/24 10:06:51;;;;;;;3.20;2.90;;;;;;;14.86;76.55;94977.34;6129752;23;20187;-86
2023/03/24 10:09:23;;;;;;;2.70;2.50;;;;;;;14.92;76.42;94975.72;6127300;23;20206;-86
2023/03/24 10:11:59;;;;;;;3.00;2.75;;;;;;;14.93;76.76;94985.06;6128128;23;20164;-87
2023/03/24 10:14:40;;;;;;;3.05;2.85;;;;;;;14.98;76.62;94988.59;6128416;23;20164;-85
2023/03/24 10:17:18;;;;;;;2.83;2.45;;;;;;;14.92;76.88;94980.88;6128717;23;20160;-86
2023/03/24 10:19:52;;;;;;;3.28;2.97;;;;;;;14.83;77.69;94981.19;6127743;23;20199;-85
2023/03/24 10:22:25;;;;;;;2.90;2.70;;;;;;;14.85;78.02;94993.91;6127876;23;20164;-87
2023/03/24 10:24:59;;;;;;;3.13;2.67;;;;;;;14.77;77.80;94989.84;6128329;23;20183;-85
2023/03/24 10:27:31;;;;;;;4.53;2.70;;;;;;;14.86;77.59;94996.28;6126991;23;20160;-85
2023/03/24 10:30:12;;;;;;;2.80;2.60;;;;;;;14.94;76.42;94997.81;6125416;23;20160;-85
2023/03/24 10:32:41;;;;;;;3.13;2.83;;;;;;;14.98;76.57;95005.94;6126349;23;20164;-85
2023/03/24 10:35:14;;;;;;;3.88;2.72;;;;;;;14.95;75.91;95002.00;6128277;23;20782;-87
2023/03/24 10:37:41;;;;;;;3.42;2.67;;;;;;;15.01;75.88;95006.28;6128544;23;20190;-85
2023/03/24 10:40:15;;;;;;;2.90;2.63;;;;;;;15.05;75.68;94998.88;6127423;23;20198;-85
2023/03/24 10:42:44;;;;;;;2.92;2.72;;;;;;;15.01;75.21;94995.16;6128204;23;20160;-83
2023/03/24 10:45:16;;;;;;;2.80;2.60;;;;;;;15.02;74.75;95009.66;6128451;23;20206;-85
2023/03/24 10:47:43;;;;;;;3.17;2.60;;;;;;;15.00;75.10;95003.94;6127361;23;20263;-84
2023/03/24 10:50:11;;;;;;;2.65;2.45;;;;;;;14.92;76.00;95009.41;6125825;23;20175;-86
2023/03/24 10:52:40;;;;;;;2.78;2.58;;;;;;;14.88;75.72;95009.03;6127163;23;20180;-87
2023/03/24 10:55:07;;;;;;;2.30;2.10;;;;;;;14.85;76.73;95014.66;6126833;23;20240;-86
2023/03/24 10:57:37;;;;;;;2.15;1.85;;;;;;;14.79;76.00;95025.91;6127178;23;20175;-85
2023/03/24 11:00:12;;;;;;;2.50;2.15;;;;;;;14.77;75.70;95007.19;6127620;23;20207;-86
2023/03/24 11:02:42;;;;;;;2.40;2.20;;;;;;;14.79;75.47;95015.53;6127709;23;20163;-83
2023/03/24 11:05:15;;;;;;;2.33;2.13;;;;;;;14.65;75.95;95008.88;6126899;23;20210;-85
2023/03/24 11:07:45;;;;;;;2.80;2.58;;;;;;;14.63;75.93;95022.06;6128452;23;20174;-85
2023/03/24 11:10:15;;;;;;;2.15;1.98;;;;;;;14.72;78.23;95018.19;6127648;23;20546;-85
2023/03/24 11:12:43;;;;;;;2.38;2.17;;;;;;;14.70;78.81;95022.00;6128107;23;20179;-86
2023/03/24 11:15:22;;;;;;;2.55;2.35;;;;;;;14.63;80.15;95009.09;6129355;23;20180;-84
2023/03/24 11:17:54;;;;;;;2.22;2.03;;;;;;;14.50;81.69;95004.06;6130148;23;20160;-84
2023/03/24 11:20:26;;;;;;;2.50;2.30;;;;;;;14.52;82.10;95013.22;6129413;23;20191;-85
2023/03/24 11:23:00;;;;;;;2.95;2.10;;;;;;;14.39;83.04;95004.75;6131704;23;20168;-84
2023/03/24 11:25:29;;;;;;;2.30;2.20;;;;;;;14.40;84.66;95004.56;6129602;23;20246;-85
2023/03/24 11:28:00;;;;;;;2.78;2.20;;;;;;;14.45;83.63;94988.38;6128848;23;20227;-84
2023/03/24 11:30:34;;;;;;;3.03;2.10;;;;;;;14.36;84.39;94981.88;6131944;23;20164;-85
2023/03/24 11:33:03;;;;;;;2.28;2.08;;;;;;;14.42;85.00;94979.25;6131067;23;20173;-85
2023/03/24 11:35:31;;;;;;;2.33;2.00;;;;;;;14.53;84.40;94972.56;6130619;23;20176;-85
2023/03/24 11:38:06;;;;;;;2.40;2.20;;;;;;;14.65;82.95;94964.84;6130406;23;20695;-85
2023/03/24 11:40:33;;;;;;;2.30;2.10;;;;;;;14.76;82.54;94962.34;6128897;23;20168;-84
2023/03/24 11:43:02;;;;;;;2.28;2.08;;;;;;;14.99;82.07;94963.47;6130456;23;20179;-86
2023/03/24 11:45:37;;;;;;;2.35;2.15;;;;;;;15.00;81.58;94947.69;6131806;23;20195;-84
2023/03/24 11:48:14;;;;;;;2.40;2.20;;;;;;;15.07;80.77;94945.00;6131629;23;20278;-86
2023/03/24 11:50:42;;;;;;;2.40;2.20;;;;;;;15.07;80.76;94945.00;6129761;23;20515;-85
2023/03/24 11:53:14;;;;;;;2.45;2.20;;;;;;;15.08;80.24;94944.78;6129496;23;20180;-85
2023/03/24 11:55:49;;;;;;;2.28;2.08;;;;;;;15.24;80.26;94942.56;6131073;23;20156;-85
2023/03/24 11:58:26;;;;;;;2.63;2.42;;;;;;;15.32;78.94;94940.47;6130563;23;20202;-86
2023/03/24 12:00:58;;;;;;;2.13;1.95;;;;;;;15.49;77.80;94928.44;6130685;23;20168;-86